Time,TemperatureF,DewpointF,PressureIn,WindDirection,WindDirectionDegrees,WindSpeedMPH,WindSpeedGustMPH,Humidity,HourlyPrecipIn,Conditions,Clouds,dailyrainin,SoftwareType,DateUTC
2013-07-13 00:02:00,60.9,60.0,30.15,South,170,0.0,0.0,95,0.00,,,0.00,weatherlink.com 1.10,2013-07-13 04:02:00,
2013-07-13 00:17:00,60.4,59.0,30.15,South,170,0.0,0.0,95,0.00,,,0.00,weatherlink.com 1.10,2013-07-13 04:17:00,
2013-07-13 00:32:00,60.1,59.0,30.15,South,170,0.0,0.0,95,0.00,,,0.00,weatherlink.com 1.10,2013-07-13 04:32:00,
2013-07-13 00:47:00,59.9,59.0,30.15,South,170,0.0,0.0,96,0.00,,,0.00,weatherlink.com 1.10,2013-07-13 04:47:00,
2013-07-13 01:02:00,59.6,59.0,30.15,South,170,0.0,0.0,96,0.00,,,0.00,weatherlink.com 1.10,2013-07-13 05:02:00,
2013-07-13 01:17:00,59.3,58.0,30.15,South,170,0.0,0.0,96,0.00,,,0.00,weatherlink.com 1.10,2013-07-13 05:17:00,
2013-07-13 01:32:00,59.2,58.0,30.15,South,171,0.0,0.0,96,0.00,,,0.00,weatherlink.com 1.10,2013-07-13 05:32:00,
2013-07-13 01:47:00,59.0,58.0,30.15,South,171,0.0,0.0,97,0.00,,,0.00,weatherlink.com 1.10,2013-07-13 05:47:00,
2013-07-13 02:02:00,59.0,58.0,30.15,South,170,0.0,0.0,97,0.00,,,0.00,weatherlink.com 1.10,2013-07-13 06:02:00,
2013-07-13 02:17:00,58.8,58.0,30.15,South,170,0.0,0.0,97,0.00,,,0.00,weatherlink.com 1.10,2013-07-13 06:17:00,
2013-07-13 02:32:00,58.6,58.0,30.16,South,170,0.0,0.0,97,0.00,,,0.00,weatherlink.com 1.10,2013-07-13 06:32:00,
2013-07-13 02:47:00,58.5,58.0,30.16,South,170,0.0,0.0,97,0.00,,,0.00,weatherlink.com 1.10,2013-07-13 06:47:00,
2013-07-13 03:18:00,58.4,58.0,30.16,South,170,0.0,0.0,98,0.00,,,0.00,weatherlink.com 1.10,2013-07-13 07:18:00,
2013-07-13 03:33:00,58.5,58.0,30.16,South,171,0.0,0.0,98,0.00,,,0.00,weatherlink.com 1.10,2013-07-13 07:33:00,
2013-07-13 03:48:00,58.6,58.0,30.17,South,170,0.0,0.0,98,0.00,,,0.00,weatherlink.com 1.10,2013-07-13 07:48:00,
2013-07-13 04:03:00,58.5,58.0,30.17,South,170,0.0,0.0,98,0.00,,,0.00,weatherlink.com 1.10,2013-07-13 08:03:00,
2013-07-13 04:18:00,58.5,58.0,30.17,South,171,0.0,0.0,98,0.00,,,0.00,weatherlink.com 1.10,2013-07-13 08:18:00,
2013-07-13 04:33:00,58.5,58.0,30.17,South,171,0.0,0.0,98,0.00,,,0.00,weatherlink.com 1.10,2013-07-13 08:33:00,
2013-07-13 04:48:00,58.4,58.0,30.18,South,171,0.0,0.0,98,0.00,,,0.00,weatherlink.com 1.10,2013-07-13 08:48:00,
2013-07-13 05:03:00,58.3,58.0,30.17,South,170,0.0,0.0,98,0.00,,,0.00,weatherlink.com 1.10,2013-07-13 09:03:00,
2013-07-13 05:18:00,58.3,58.0,30.17,South,171,0.0,0.0,98,0.00,,,0.00,weatherlink.com 1.10,2013-07-13 09:18:00,
2013-07-13 05:33:00,58.3,58.0,30.17,South,170,0.0,0.0,98,0.00,,,0.00,weatherlink.com 1.10,2013-07-13 09:33:00,
2013-07-13 05:48:00,58.2,58.0,30.17,South,170,0.0,0.0,98,0.00,,,0.00,weatherlink.com 1.10,2013-07-13 09:48:00,
2013-07-13 06:03:00,58.0,58.0,30.18,South,171,0.0,0.0,98,0.00,,,0.00,weatherlink.com 1.10,2013-07-13 10:03:00,
2013-07-13 06:18:00,57.9,57.0,30.19,South,170,0.0,0.0,98,0.00,,,0.00,weatherlink.com 1.10,2013-07-13 10:18:00,
2013-07-13 06:33:00,57.6,57.0,30.19,South,172,0.0,0.0,98,0.00,,,0.00,weatherlink.com 1.10,2013-07-13 10:33:00,
2013-07-13 06:48:00,57.5,57.0,30.19,South,172,0.0,0.0,98,0.00,,,0.00,weatherlink.com 1.10,2013-07-13 10:48:00,
2013-07-13 07:03:00,57.6,57.0,30.19,South,172,0.0,0.0,99,0.00,,,0.00,weatherlink.com 1.10,2013-07-13 11:03:00,
2013-07-13 07:18:00,57.9,58.0,30.19,South,172,0.0,0.0,99,0.00,,,0.00,weatherlink.com 1.10,2013-07-13 11:18:00,
2013-07-13 07:33:00,58.4,58.0,30.18,South,170,0.0,0.0,99,0.00,,,0.00,weatherlink.com 1.10,2013-07-13 11:33:00,
2013-07-13 07:48:00,59.3,59.0,30.18,South,171,0.0,0.0,99,0.00,,,0.00,weatherlink.com 1.10,2013-07-13 11:48:00,
2013-07-13 08:03:00,60.7,61.0,30.18,South,170,0.0,0.0,99,0.00,,,0.00,weatherlink.com 1.10,2013-07-13 12:03:00,
2013-07-13 08:18:00,62.5,62.0,30.18,WSW,244,0.0,1.0,99,0.00,,,0.00,weatherlink.com 1.10,2013-07-13 12:18:00,
2013-07-13 08:33:00,63.9,64.0,30.19,West,276,1.0,2.0,99,0.00,,,0.00,weatherlink.com 1.10,2013-07-13 12:33:00,
2013-07-13 08:48:00,67.7,64.0,30.19,SW,221,2.0,3.0,89,0.00,,,0.00,weatherlink.com 1.10,2013-07-13 12:48:00,
2013-07-13 09:03:00,70.1,65.0,30.19,West,267,1.0,3.0,84,0.00,,,0.00,weatherlink.com 1.10,2013-07-13 13:03:00,
2013-07-13 09:18:00,72.0,65.0,30.19,WSW,243,1.0,3.0,78,0.00,,,0.00,weatherlink.com 1.10,2013-07-13 13:18:00,
2013-07-13 09:33:00,73.3,65.0,30.19,SW,218,1.0,2.0,75,0.00,,,0.00,weatherlink.com 1.10,2013-07-13 13:33:00,
2013-07-13 09:48:00,74.5,66.0,30.19,South,180,1.0,3.0,74,0.00,,,0.00,weatherlink.com 1.10,2013-07-13 13:48:00,
2013-07-13 10:03:00,75.3,66.0,30.19,West,278,0.0,5.0,72,0.00,,,0.00,weatherlink.com 1.10,2013-07-13 14:03:00,
2013-07-13 10:18:00,76.1,65.0,30.19,South,169,3.0,3.0,68,0.00,,,0.00,weatherlink.com 1.10,2013-07-13 14:18:00,
2013-07-13 10:33:00,77.0,67.0,30.20,WNW,290,2.0,4.0,71,0.00,,,0.00,weatherlink.com 1.10,2013-07-13 14:33:00,
2013-07-13 10:48:00,77.4,66.0,30.20,South,179,0.0,3.0,67,0.00,,,0.00,weatherlink.com 1.10,2013-07-13 14:48:00,
2013-07-13 11:04:00,77.8,64.0,30.19,NE,47,0.0,3.0,63,0.00,,,0.00,weatherlink.com 1.10,2013-07-13 15:04:00,
2013-07-13 11:19:00,78.9,65.0,30.19,WNW,286,0.0,3.0,63,0.00,,,0.00,weatherlink.com 1.10,2013-07-13 15:19:00,
2013-07-13 11:34:00,79.2,67.0,30.19,WSW,243,1.0,5.0,66,0.00,,,0.00,weatherlink.com 1.10,2013-07-13 15:34:00,
2013-07-13 11:49:00,79.5,65.0,30.19,East,91,2.0,4.0,61,0.00,,,0.00,weatherlink.com 1.10,2013-07-13 15:49:00,
2013-07-13 12:04:00,80.5,65.0,30.18,SSW,207,4.0,5.0,59,0.00,,,0.00,weatherlink.com 1.10,2013-07-13 16:04:00,
2013-07-13 12:19:00,80.6,65.0,30.18,South,184,3.0,4.0,59,0.00,,,0.00,weatherlink.com 1.10,2013-07-13 16:19:00,
2013-07-13 12:34:00,80.2,64.0,30.19,South,174,2.0,5.0,58,0.00,,,0.00,weatherlink.com 1.10,2013-07-13 16:34:00,
2013-07-13 12:49:00,80.0,65.0,30.18,NNE,12,2.0,4.0,61,0.00,,,0.00,weatherlink.com 1.10,2013-07-13 16:49:00,
2013-07-13 13:04:00,80.5,65.0,30.18,NW,320,0.0,4.0,60,0.00,,,0.00,weatherlink.com 1.10,2013-07-13 17:04:00,
2013-07-13 13:19:00,81.6,65.0,30.18,ESE,120,0.0,6.0,57,0.00,,,0.00,weatherlink.com 1.10,2013-07-13 17:19:00,
2013-07-13 13:34:00,81.9,65.0,30.19,ESE,120,1.0,6.0,56,0.00,,,0.00,weatherlink.com 1.10,2013-07-13 17:34:00,
2013-07-13 13:49:00,82.4,66.0,30.18,SSW,200,2.0,4.0,58,0.00,,,0.00,weatherlink.com 1.10,2013-07-13 17:49:00,
2013-07-13 14:04:00,81.2,64.0,30.19,WSW,242,1.0,4.0,57,0.00,,,0.00,weatherlink.com 1.10,2013-07-13 18:04:00,
2013-07-13 14:19:00,80.8,65.0,30.18,WNW,293,1.0,3.0,59,0.00,,,0.00,weatherlink.com 1.10,2013-07-13 18:19:00,
2013-07-13 14:34:00,80.9,67.0,30.17,SSE,156,1.0,4.0,63,0.00,,,0.00,weatherlink.com 1.10,2013-07-13 18:34:00,
2013-07-13 14:49:00,82.3,63.0,30.17,ESE,119,0.0,5.0,53,0.00,,,0.00,weatherlink.com 1.10,2013-07-13 18:49:00,
2013-07-13 15:04:00,83.1,64.0,30.17,SSW,207,1.0,4.0,52,0.00,,,0.00,weatherlink.com 1.10,2013-07-13 19:04:00,
2013-07-13 15:19:00,83.2,63.0,30.17,WSW,250,0.0,5.0,50,0.00,,,0.00,weatherlink.com 1.10,2013-07-13 19:19:00,
2013-07-13 15:34:00,82.7,64.0,30.17,East,79,1.0,5.0,53,0.00,,,0.00,weatherlink.com 1.10,2013-07-13 19:34:00,
2013-07-13 15:49:00,81.6,64.0,30.17,NW,323,1.0,1.0,55,0.00,,,0.00,weatherlink.com 1.10,2013-07-13 19:49:00,
2013-07-13 16:04:00,82.4,65.0,30.17,SW,225,1.0,4.0,56,0.00,,,0.00,weatherlink.com 1.10,2013-07-13 20:04:00,
2013-07-13 16:19:00,82.6,67.0,30.16,SE,134,0.0,4.0,60,0.00,,,0.00,weatherlink.com 1.10,2013-07-13 20:19:00,
2013-07-13 16:34:00,83.3,64.0,30.16,WSW,248,0.0,4.0,53,0.00,,,0.00,weatherlink.com 1.10,2013-07-13 20:34:00,
2013-07-13 16:49:00,83.5,66.0,30.16,SW,228,2.0,3.0,55,0.00,,,0.00,weatherlink.com 1.10,2013-07-13 20:49:00,
2013-07-13 17:04:00,83.3,65.0,30.16,NE,49,4.0,5.0,54,0.00,,,0.00,weatherlink.com 1.10,2013-07-13 21:04:00,
2013-07-13 17:19:00,82.8,66.0,30.16,West,276,0.0,2.0,58,0.00,,,0.00,weatherlink.com 1.10,2013-07-13 21:19:00,
2013-07-13 17:34:00,81.0,65.0,30.16,SW,228,4.0,4.0,59,0.00,,,0.00,weatherlink.com 1.10,2013-07-13 21:34:00,
2013-07-13 17:49:00,81.9,67.0,30.16,WSW,245,2.0,6.0,60,0.00,,,0.00,weatherlink.com 1.10,2013-07-13 21:49:00,
2013-07-13 18:04:00,80.6,66.0,30.16,SW,215,0.0,2.0,61,0.00,,,0.00,weatherlink.com 1.10,2013-07-13 22:04:00,
2013-07-13 18:19:00,80.1,66.0,30.16,East,89,0.0,1.0,63,0.00,,,0.00,weatherlink.com 1.10,2013-07-13 22:19:00,
2013-07-13 18:34:00,80.6,65.0,30.15,NW,323,1.0,3.0,59,0.00,,,0.00,weatherlink.com 1.10,2013-07-13 22:34:00,
2013-07-13 18:49:00,80.5,65.0,30.16,West,266,0.0,3.0,60,0.00,,,0.00,weatherlink.com 1.10,2013-07-13 22:49:00,
2013-07-13 19:04:00,79.1,66.0,30.16,West,266,0.0,0.0,65,0.00,,,0.00,weatherlink.com 1.10,2013-07-13 23:04:00,
2013-07-13 19:19:00,79.5,68.0,30.16,NE,45,4.0,4.0,67,0.00,,,0.00,weatherlink.com 1.10,2013-07-13 23:19:00,
2013-07-13 19:34:00,79.0,65.0,30.16,SE,134,0.0,3.0,63,0.00,,,0.00,weatherlink.com 1.10,2013-07-13 23:34:00,
2013-07-13 19:49:00,77.6,65.0,30.15,West,266,1.0,2.0,65,0.00,,,0.00,weatherlink.com 1.10,2013-07-13 23:49:00,
2013-07-13 20:04:00,77.3,65.0,30.16,SW,219,0.0,2.0,66,0.00,,,0.00,weatherlink.com 1.10,2013-07-14 00:04:00,
2013-07-13 20:19:00,76.6,66.0,30.16,ENE,58,0.0,1.0,69,0.00,,,0.00,weatherlink.com 1.10,2013-07-14 00:19:00,
2013-07-13 20:34:00,75.4,66.0,30.16,North,5,0.0,0.0,73,0.00,,,0.00,weatherlink.com 1.10,2013-07-14 00:34:00,
2013-07-13 20:49:00,74.0,66.0,30.16,North,4,0.0,0.0,76,0.00,,,0.00,weatherlink.com 1.10,2013-07-14 00:49:00,
2013-07-13 21:04:00,72.8,66.0,30.17,North,5,0.0,0.0,78,0.00,,,0.00,weatherlink.com 1.10,2013-07-14 01:04:00,
2013-07-13 21:19:00,71.8,66.0,30.16,North,6,0.0,0.0,81,0.00,,,0.00,weatherlink.com 1.10,2013-07-14 01:19:00,
2013-07-13 21:34:00,70.8,66.0,30.17,North,6,0.0,0.0,84,0.00,,,0.00,weatherlink.com 1.10,2013-07-14 01:34:00,
2013-07-13 21:49:00,70.1,65.0,30.17,North,6,0.0,0.0,84,0.00,,,0.00,weatherlink.com 1.10,2013-07-14 01:49:00,
2013-07-13 22:04:00,70.1,65.0,30.18,North,7,0.0,1.0,84,0.00,,,0.00,weatherlink.com 1.10,2013-07-14 02:04:00,
2013-07-13 22:19:00,70.9,65.0,30.18,SSE,148,0.0,1.0,82,0.00,,,0.00,weatherlink.com 1.10,2013-07-14 02:19:00,
2013-07-13 22:34:00,71.1,65.0,30.19,SW,221,0.0,1.0,80,0.00,,,0.00,weatherlink.com 1.10,2013-07-14 02:34:00,
2013-07-13 22:49:00,70.1,65.0,30.19,SW,221,0.0,0.0,84,0.00,,,0.00,weatherlink.com 1.10,2013-07-14 02:49:00,
2013-07-13 23:04:00,69.0,65.0,30.20,SW,221,0.0,0.0,86,0.00,,,0.00,weatherlink.com 1.10,2013-07-14 03:04:00,
2013-07-13 23:19:00,68.0,64.0,30.20,SW,221,0.0,0.0,88,0.00,,,0.00,weatherlink.com 1.10,2013-07-14 03:19:00,
2013-07-13 23:34:00,67.6,64.0,30.20,SW,221,0.0,1.0,89,0.00,,,0.00,weatherlink.com 1.10,2013-07-14 03:34:00,
2013-07-13 23:49:00,67.9,64.0,30.20,SW,214,0.0,0.0,88,0.00,,,0.00,weatherlink.com 1.10,2013-07-14 03:49:00,